sensor_id;sensor_type;location;lat;lon;timestamp;pressure;altitude;pressure_sealevel;temperature
60003;BMP280;46322;52.018;8.702;2023-02-08T00:02:48;102600.94;;;9.21
60003;BMP280;46322;52.018;8.702;2023-02-08T00:07:49;102601.81;;;8.04
60003;BMP280;46322;52.018;8.702;2023-02-08T00:12:49;102590.97;;;8.51
60003;BMP280;46322;52.018;8.702;2023-02-08T00:17:49;102593.19;;;8.59
60003;BMP280;46322;52.018;8.702;2023-02-08T00:22:50;102584.97;;;8.38
60003;BMP280;46322;52.018;8.702;2023-02-08T00:27:50;102584.94;;;10.18
60003;BMP280;46322;52.018;8.702;2023-02-08T00:32:50;102582.97;;;10.41
60003;BMP280;46322;52.018;8.702;2023-02-08T00:37:50;102571.06;;;7.41
60003;BMP280;46322;52.018;8.702;2023-02-08T00:42:50;102573.63;;;10.28
60003;BMP280;46322;52.018;8.702;2023-02-08T00:47:50;102578.09;;;7.23
60003;BMP280;46322;52.018;8.702;2023-02-08T00:52:50;102565.66;;;8.38
60003;BMP280;46322;52.018;8.702;2023-02-08T00:57:51;102570.28;;;9.52
60003;BMP280;46322;52.018;8.702;2023-02-08T01:02:51;102564.38;;;9.99
60003;BMP280;46322;52.018;8.702;2023-02-08T01:07:51;102563.56;;;10.77
60003;BMP280;46322;52.018;8.702;2023-02-08T01:12:51;102563.94;;;10.49
60003;BMP280;46322;52.018;8.702;2023-02-08T01:17:52;102567.22;;;10.61
60003;BMP280;46322;52.018;8.702;2023-02-08T01:22:53;102567.22;;;10.66
60003;BMP280;46322;52.018;8.702;2023-02-08T01:27:53;102554.66;;;10.46
60003;BMP280;46322;52.018;8.702;2023-02-08T01:32:53;102550.31;;;10.35
60003;BMP280;46322;52.018;8.702;2023-02-08T01:37:53;102554.44;;;8.86
60003;BMP280;46322;52.018;8.702;2023-02-08T01:42:53;102563.31;;;8.41
60003;BMP280;46322;52.018;8.702;2023-02-08T01:48:05;102552.19;;;8.39
60003;BMP280;46322;52.018;8.702;2023-02-08T01:53:05;102550.72;;;6.66
60003;BMP280;46322;52.018;8.702;2023-02-08T01:58:06;102555.91;;;8.22
60003;BMP280;46322;52.018;8.702;2023-02-08T02:03:08;102538.22;;;6.50
60003;BMP280;46322;52.018;8.702;2023-02-08T02:08:09;102541.25;;;7.69
60003;BMP280;46322;52.018;8.702;2023-02-08T02:13:14;102547.69;;;10.40
60003;BMP280;46322;52.018;8.702;2023-02-08T02:18:18;102555.19;;;10.48
60003;BMP280;46322;52.018;8.702;2023-02-08T02:34:16;102554.00;;;8.72
60003;BMP280;46322;52.018;8.702;2023-02-08T02:44:04;102538.41;;;7.18
60003;BMP280;46322;52.018;8.702;2023-02-08T02:49:12;102541.38;;;7.34
60003;BMP280;46322;52.018;8.702;2023-02-08T02:54:18;102530.44;;;6.55
60003;BMP280;46322;52.018;8.702;2023-02-08T02:59:19;102525.63;;;7.10
60003;BMP280;46322;52.018;8.702;2023-02-08T03:19:49;102526.72;;;9.64
60003;BMP280;46322;52.018;8.702;2023-02-08T03:25:00;102521.91;;;8.86
60003;BMP280;46322;52.018;8.702;2023-02-08T03:40:34;102536.28;;;8.34
60003;BMP280;46322;52.018;8.702;2023-02-08T03:45:37;102523.59;;;8.75
60003;BMP280;46322;52.018;8.702;2023-02-08T03:50:38;102541.69;;;7.94
60003;BMP280;46322;52.018;8.702;2023-02-08T03:55:39;102522.56;;;8.04
60003;BMP280;46322;52.018;8.702;2023-02-08T04:00:43;102531.69;;;8.13
60003;BMP280;46322;52.018;8.702;2023-02-08T04:05:44;102524.38;;;8.37
60003;BMP280;46322;52.018;8.702;2023-02-08T04:10:45;102522.53;;;8.54
60003;BMP280;46322;52.018;8.702;2023-02-08T04:15:45;102520.94;;;7.69
60003;BMP280;46322;52.018;8.702;2023-02-08T04:20:46;102530.41;;;7.02
60003;BMP280;46322;52.018;8.702;2023-02-08T04:25:46;102528.16;;;8.07
60003;BMP280;46322;52.018;8.702;2023-02-08T04:30:46;102522.66;;;7.35
60003;BMP280;46322;52.018;8.702;2023-02-08T04:35:46;102518.69;;;9.27
60003;BMP280;46322;52.018;8.702;2023-02-08T04:40:46;102522.28;;;9.43
60003;BMP280;46322;52.018;8.702;2023-02-08T04:45:48;102522.88;;;9.01
60003;BMP280;46322;52.018;8.702;2023-02-08T04:50:48;102518.28;;;9.68
60003;BMP280;46322;52.018;8.702;2023-02-08T04:55:48;102520.78;;;9.52
60003;BMP280;46322;52.018;8.702;2023-02-08T05:00:48;102519.50;;;9.55
60003;BMP280;46322;52.018;8.702;2023-02-08T05:05:58;102519.72;;;9.53
60003;BMP280;46322;52.018;8.702;2023-02-08T05:10:59;102520.03;;;9.30
60003;BMP280;46322;52.018;8.702;2023-02-08T05:15:59;102516.16;;;9.38
60003;BMP280;46322;52.018;8.702;2023-02-08T05:20:59;102527.28;;;7.85
60003;BMP280;46322;52.018;8.702;2023-02-08T05:26:03;102528.28;;;7.84
60003;BMP280;46322;52.018;8.702;2023-02-08T05:31:13;102533.88;;;6.79
60003;BMP280;46322;52.018;8.702;2023-02-08T05:36:14;102530.22;;;6.91
60003;BMP280;46322;52.018;8.702;2023-02-08T05:41:14;102528.59;;;8.71
60003;BMP280;46322;52.018;8.702;2023-02-08T05:46:14;102537.75;;;9.29
60003;BMP280;46322;52.018;8.702;2023-02-08T05:51:14;102532.13;;;8.60
60003;BMP280;46322;52.018;8.702;2023-02-08T05:56:15;102537.16;;;9.00
60003;BMP280;46322;52.018;8.702;2023-02-08T06:01:15;102545.78;;;7.56
60003;BMP280;46322;52.018;8.702;2023-02-08T06:06:15;102554.16;;;6.78
60003;BMP280;46322;52.018;8.702;2023-02-08T06:11:15;102553.75;;;9.18
60003;BMP280;46322;52.018;8.702;2023-02-08T06:16:15;102545.69;;;8.64
60003;BMP280;46322;52.018;8.702;2023-02-08T06:21:15;102543.75;;;7.75
60003;BMP280;46322;52.018;8.702;2023-02-08T06:26:15;102548.56;;;6.86
60003;BMP280;46322;52.018;8.702;2023-02-08T06:31:16;102544.09;;;7.67
60003;BMP280;46322;52.018;8.702;2023-02-08T06:36:16;102546.56;;;7.85
60003;BMP280;46322;52.018;8.702;2023-02-08T06:41:16;102544.25;;;8.78
60003;BMP280;46322;52.018;8.702;2023-02-08T06:46:16;102542.59;;;9.32
60003;BMP280;46322;52.018;8.702;2023-02-08T06:51:16;102544.41;;;8.88
60003;BMP280;46322;52.018;8.702;2023-02-08T06:56:16;102548.03;;;8.82
60003;BMP280;46322;52.018;8.702;2023-02-08T07:01:16;102546.31;;;8.37
60003;BMP280;46322;52.018;8.702;2023-02-08T07:06:18;102538.28;;;8.66
60003;BMP280;46322;52.018;8.702;2023-02-08T07:11:19;102548.13;;;8.32
60003;BMP280;46322;52.018;8.702;2023-02-08T07:16:19;102535.56;;;9.21
60003;BMP280;46322;52.018;8.702;2023-02-08T07:21:19;102536.31;;;8.06
60003;BMP280;46322;52.018;8.702;2023-02-08T07:26:19;102551.97;;;9.23
60003;BMP280;46322;52.018;8.702;2023-02-08T07:31:20;102547.16;;;8.76
60003;BMP280;46322;52.018;8.702;2023-02-08T07:36:20;102539.38;;;8.87
60003;BMP280;46322;52.018;8.702;2023-02-08T07:41:20;102540.84;;;9.48
60003;BMP280;46322;52.018;8.702;2023-02-08T07:46:20;102528.16;;;9.77
60003;BMP280;46322;52.018;8.702;2023-02-08T07:51:20;102536.88;;;9.46
60003;BMP280;46322;52.018;8.702;2023-02-08T07:56:20;102539.38;;;9.89
60003;BMP280;46322;52.018;8.702;2023-02-08T08:01:21;102540.09;;;10.12
60003;BMP280;46322;52.018;8.702;2023-02-08T08:06:21;102539.16;;;10.80
60003;BMP280;46322;52.018;8.702;2023-02-08T08:11:21;102538.34;;;10.80
60003;BMP280;46322;52.018;8.702;2023-02-08T08:16:21;102529.41;;;11.06
60003;BMP280;46322;52.018;8.702;2023-02-08T08:21:22;102535.78;;;10.38
60003;BMP280;46322;52.018;8.702;2023-02-08T08:26:22;102539.81;;;11.23
60003;BMP280;46322;52.018;8.702;2023-02-08T08:31:22;102549.97;;;11.57
60003;BMP280;46322;52.018;8.702;2023-02-08T08:36:22;102553.13;;;12.09
60003;BMP280;46322;52.018;8.702;2023-02-08T08:41:22;102547.06;;;11.89
60003;BMP280;46322;52.018;8.702;2023-02-08T08:46:22;102533.66;;;11.12
60003;BMP280;46322;52.018;8.702;2023-02-08T08:51:22;102521.34;;;8.84
60003;BMP280;46322;52.018;8.702;2023-02-08T08:56:23;102518.97;;;9.85
60003;BMP280;46322;52.018;8.702;2023-02-08T09:01:23;102515.44;;;8.98
60003;BMP280;46322;52.018;8.702;2023-02-08T09:06:23;102510.59;;;9.71
60003;BMP280;46322;52.018;8.702;2023-02-08T09:11:23;102508.94;;;10.34
60003;BMP280;46322;52.018;8.702;2023-02-08T09:16:23;102512.78;;;11.57
60003;BMP280;46322;52.018;8.702;2023-02-08T09:21:24;102509.50;;;10.41
60003;BMP280;46322;52.018;8.702;2023-02-08T09:26:24;102511.66;;;11.02
60003;BMP280;46322;52.018;8.702;2023-02-08T09:31:25;102517.84;;;13.18
60003;BMP280;46322;52.018;8.702;2023-02-08T09:36:26;102511.88;;;12.87
60003;BMP280;46322;52.018;8.702;2023-02-08T09:46:37;102520.47;;;11.58
60003;BMP280;46322;52.018;8.702;2023-02-08T09:51:40;102527.38;;;11.95
60003;BMP280;46322;52.018;8.702;2023-02-08T09:56:42;102527.63;;;12.14
60003;BMP280;46322;52.018;8.702;2023-02-08T10:01:43;102527.22;;;12.56
60003;BMP280;46322;52.018;8.702;2023-02-08T10:06:44;102518.63;;;11.38
60003;BMP280;46322;52.018;8.702;2023-02-08T10:11:47;102524.50;;;14.31
60003;BMP280;46322;52.018;8.702;2023-02-08T10:26:53;102518.84;;;12.03
60003;BMP280;46322;52.018;8.702;2023-02-08T10:32:31;102511.94;;;11.21
60003;BMP280;46322;52.018;8.702;2023-02-08T10:42:28;102511.53;;;15.32
60003;BMP280;46322;52.018;8.702;2023-02-08T10:53:03;102492.69;;;13.63
60003;BMP280;46322;52.018;8.702;2023-02-08T10:58:03;102478.97;;;14.22
60003;BMP280;46322;52.018;8.702;2023-02-08T11:03:17;102485.25;;;14.50
60003;BMP280;46322;52.018;8.702;2023-02-08T11:08:20;102473.94;;;15.28
60003;BMP280;46322;52.018;8.702;2023-02-08T11:13:21;102470.16;;;13.50
60003;BMP280;46322;52.018;8.702;2023-02-08T11:18:25;102469.25;;;14.69
60003;BMP280;46322;52.018;8.702;2023-02-08T11:23:34;102453.38;;;14.78
60003;BMP280;46322;52.018;8.702;2023-02-08T11:28:35;102445.53;;;15.60
60003;BMP280;46322;52.018;8.702;2023-02-08T11:33:35;102456.88;;;15.11
60003;BMP280;46322;52.018;8.702;2023-02-08T11:38:37;102449.75;;;14.87
60003;BMP280;46322;52.018;8.702;2023-02-08T11:43:39;102450.13;;;15.13
60003;BMP280;46322;52.018;8.702;2023-02-08T11:48:44;102450.28;;;15.03
60003;BMP280;46322;52.018;8.702;2023-02-08T11:53:48;102450.13;;;15.27
60003;BMP280;46322;52.018;8.702;2023-02-08T11:58:57;102450.31;;;16.26
60003;BMP280;46322;52.018;8.702;2023-02-08T12:03:58;102446.69;;;16.67
60003;BMP280;46322;52.018;8.702;2023-02-08T12:09:06;102441.56;;;17.98
60003;BMP280;46322;52.018;8.702;2023-02-08T12:19:30;102437.75;;;18.16
60003;BMP280;46322;52.018;8.702;2023-02-08T12:29:55;102425.91;;;19.36
60003;BMP280;46322;52.018;8.702;2023-02-08T12:45:32;102419.97;;;20.59
60003;BMP280;46322;52.018;8.702;2023-02-08T12:55:54;102404.91;;;21.99
60003;BMP280;46322;52.018;8.702;2023-02-08T13:01:01;102384.84;;;21.72
60003;BMP280;46322;52.018;8.702;2023-02-08T13:06:06;102385.13;;;20.54
60003;BMP280;46322;52.018;8.702;2023-02-08T13:11:17;102373.78;;;23.61
60003;BMP280;46322;52.018;8.702;2023-02-08T13:16:21;102364.72;;;20.77
60003;BMP280;46322;52.018;8.702;2023-02-08T13:21:23;102352.69;;;18.72
60003;BMP280;46322;52.018;8.702;2023-02-08T13:26:25;102355.66;;;22.37
60003;BMP280;46322;52.018;8.702;2023-02-08T13:31:27;102338.09;;;21.84
60003;BMP280;46322;52.018;8.702;2023-02-08T13:36:30;102330.72;;;21.53
60003;BMP280;46322;52.018;8.702;2023-02-08T13:41:31;102329.72;;;20.20
60003;BMP280;46322;52.018;8.702;2023-02-08T13:46:36;102327.00;;;23.83
60003;BMP280;46322;52.018;8.702;2023-02-08T13:51:50;102320.25;;;23.51
60003;BMP280;46322;52.018;8.702;2023-02-08T13:56:51;102319.16;;;24.01
60003;BMP280;46322;52.018;8.702;2023-02-08T14:12:21;102295.03;;;23.27
60003;BMP280;46322;52.018;8.702;2023-02-08T14:17:23;102295.38;;;23.45
60003;BMP280;46322;52.018;8.702;2023-02-08T14:22:33;102293.25;;;22.27
60003;BMP280;46322;52.018;8.702;2023-02-08T14:27:39;102280.63;;;22.15
60003;BMP280;46322;52.018;8.702;2023-02-08T14:32:40;102283.16;;;23.13
60003;BMP280;46322;52.018;8.702;2023-02-08T14:37:41;102272.25;;;18.58
60003;BMP280;46322;52.018;8.702;2023-02-08T14:48:04;102264.13;;;21.73
60003;BMP280;46322;52.018;8.702;2023-02-08T14:53:18;102260.88;;;23.42
60003;BMP280;46322;52.018;8.702;2023-02-08T14:58:23;102263.75;;;23.30
60003;BMP280;46322;52.018;8.702;2023-02-08T15:03:24;102254.88;;;22.72
60003;BMP280;46322;52.018;8.702;2023-02-08T15:08:25;102242.97;;;24.06
60003;BMP280;46322;52.018;8.702;2023-02-08T15:13:26;102233.13;;;20.31
60003;BMP280;46322;52.018;8.702;2023-02-08T15:18:29;102235.66;;;19.25
60003;BMP280;46322;52.018;8.702;2023-02-08T15:23:31;102215.63;;;17.96
60003;BMP280;46322;52.018;8.702;2023-02-08T15:28:34;102216.00;;;18.32
60003;BMP280;46322;52.018;8.702;2023-02-08T15:33:38;102211.44;;;18.83
60003;BMP280;46322;52.018;8.702;2023-02-08T15:38:39;102206.81;;;19.79
60003;BMP280;46322;52.018;8.702;2023-02-08T15:43:41;102190.94;;;19.53
60003;BMP280;46322;52.018;8.702;2023-02-08T15:48:42;102203.31;;;20.64
60003;BMP280;46322;52.018;8.702;2023-02-08T15:53:44;102201.78;;;18.61
60003;BMP280;46322;52.018;8.702;2023-02-08T15:58:45;102205.91;;;17.31
60003;BMP280;46322;52.018;8.702;2023-02-08T16:03:48;102190.69;;;15.95
60003;BMP280;46322;52.018;8.702;2023-02-08T16:08:50;102198.44;;;16.28
60003;BMP280;46322;52.018;8.702;2023-02-08T16:13:52;102176.22;;;16.84
60003;BMP280;46322;52.018;8.702;2023-02-08T16:18:56;102179.31;;;16.21
60003;BMP280;46322;52.018;8.702;2023-02-08T16:28:58;102179.63;;;15.88
60003;BMP280;46322;52.018;8.702;2023-02-08T16:34:12;102164.34;;;16.20
60003;BMP280;46322;52.018;8.702;2023-02-08T16:44:14;102159.31;;;15.87
60003;BMP280;46322;52.018;8.702;2023-02-08T16:49:14;102158.66;;;14.74
60003;BMP280;46322;52.018;8.702;2023-02-08T16:54:17;102150.88;;;13.52
60003;BMP280;46322;52.018;8.702;2023-02-08T16:59:18;102140.81;;;14.00
60003;BMP280;46322;52.018;8.702;2023-02-08T17:04:18;102136.25;;;12.64
60003;BMP280;46322;52.018;8.702;2023-02-08T17:09:18;102130.41;;;15.09
60003;BMP280;46322;52.018;8.702;2023-02-08T17:14:18;102125.53;;;15.24
60003;BMP280;46322;52.018;8.702;2023-02-08T17:19:18;102119.06;;;13.42
60003;BMP280;46322;52.018;8.702;2023-02-08T17:24:19;102114.75;;;15.29
60003;BMP280;46322;52.018;8.702;2023-02-08T17:29:19;102118.44;;;15.20
60003;BMP280;46322;52.018;8.702;2023-02-08T17:34:19;102113.69;;;15.03
60003;BMP280;46322;52.018;8.702;2023-02-08T17:39:19;102111.91;;;12.76
60003;BMP280;46322;52.018;8.702;2023-02-08T17:44:19;102108.91;;;13.58
60003;BMP280;46322;52.018;8.702;2023-02-08T17:49:20;102107.25;;;13.48
60003;BMP280;46322;52.018;8.702;2023-02-08T17:54:20;102104.72;;;13.57
60003;BMP280;46322;52.018;8.702;2023-02-08T17:59:20;102092.94;;;13.90
60003;BMP280;46322;52.018;8.702;2023-02-08T18:04:20;102085.75;;;11.28
60003;BMP280;46322;52.018;8.702;2023-02-08T18:09:20;102078.66;;;10.44
60003;BMP280;46322;52.018;8.702;2023-02-08T18:14:20;102065.38;;;10.44
60003;BMP280;46322;52.018;8.702;2023-02-08T18:19:20;102068.06;;;10.13
60003;BMP280;46322;52.018;8.702;2023-02-08T18:24:21;102054.03;;;10.03
60003;BMP280;46322;52.018;8.702;2023-02-08T18:29:21;102051.09;;;9.89
60003;BMP280;46322;52.018;8.702;2023-02-08T18:34:21;102030.19;;;10.03
60003;BMP280;46322;52.018;8.702;2023-02-08T18:39:21;102029.34;;;9.61
60003;BMP280;46322;52.018;8.702;2023-02-08T18:44:21;102031.38;;;9.19
60003;BMP280;46322;52.018;8.702;2023-02-08T18:49:21;102032.47;;;10.55
60003;BMP280;46322;52.018;8.702;2023-02-08T18:54:21;102034.91;;;11.06
60003;BMP280;46322;52.018;8.702;2023-02-08T18:59:22;102029.72;;;8.97
60003;BMP280;46322;52.018;8.702;2023-02-08T19:04:22;102015.84;;;9.99
60003;BMP280;46322;52.018;8.702;2023-02-08T19:09:22;102009.81;;;11.32
60003;BMP280;46322;52.018;8.702;2023-02-08T19:14:22;102016.78;;;13.38
60003;BMP280;46322;52.018;8.702;2023-02-08T19:19:22;102028.69;;;13.08
60003;BMP280;46322;52.018;8.702;2023-02-08T19:24:22;102021.50;;;12.90
60003;BMP280;46322;52.018;8.702;2023-02-08T19:29:23;102008.53;;;12.64
60003;BMP280;46322;52.018;8.702;2023-02-08T19:34:23;102007.97;;;11.67
60003;BMP280;46322;52.018;8.702;2023-02-08T19:39:25;102005.09;;;12.16
60003;BMP280;46322;52.018;8.702;2023-02-08T19:44:25;101998.78;;;12.12
60003;BMP280;46322;52.018;8.702;2023-02-08T19:49:25;102002.88;;;11.99
60003;BMP280;46322;52.018;8.702;2023-02-08T19:54:25;101999.97;;;12.01
60003;BMP280;46322;52.018;8.702;2023-02-08T19:59:26;102008.13;;;11.75
60003;BMP280;46322;52.018;8.702;2023-02-08T20:04:27;102009.56;;;11.97
60003;BMP280;46322;52.018;8.702;2023-02-08T20:09:27;102004.56;;;11.90
60003;BMP280;46322;52.018;8.702;2023-02-08T20:14:28;102014.81;;;11.39
60003;BMP280;46322;52.018;8.702;2023-02-08T20:19:28;102028.03;;;11.83
60003;BMP280;46322;52.018;8.702;2023-02-08T20:24:28;102026.00;;;11.65
60003;BMP280;46322;52.018;8.702;2023-02-08T20:29:29;102014.53;;;11.74
60003;BMP280;46322;52.018;8.702;2023-02-08T20:34:29;102028.38;;;11.37
60003;BMP280;46322;52.018;8.702;2023-02-08T20:39:29;102031.16;;;11.17
60003;BMP280;46322;52.018;8.702;2023-02-08T20:44:29;102040.81;;;11.42
60003;BMP280;46322;52.018;8.702;2023-02-08T20:49:29;102038.50;;;11.64
60003;BMP280;46322;52.018;8.702;2023-02-08T20:54:29;102035.09;;;11.25
60003;BMP280;46322;52.018;8.702;2023-02-08T20:59:30;102030.06;;;11.18
60003;BMP280;46322;52.018;8.702;2023-02-08T21:04:33;102018.31;;;11.34
60003;BMP280;46322;52.018;8.702;2023-02-08T21:09:33;102020.84;;;11.10
60003;BMP280;46322;52.018;8.702;2023-02-08T21:14:33;102016.13;;;11.02
60003;BMP280;46322;52.018;8.702;2023-02-08T21:19:33;102020.13;;;10.90
60003;BMP280;46322;52.018;8.702;2023-02-08T21:24:34;102029.28;;;10.48
60003;BMP280;46322;52.018;8.702;2023-02-08T21:29:34;102020.19;;;10.74
60003;BMP280;46322;52.018;8.702;2023-02-08T21:34:34;102027.16;;;10.60
60003;BMP280;46322;52.018;8.702;2023-02-08T21:39:34;102014.91;;;10.69
60003;BMP280;46322;52.018;8.702;2023-02-08T21:44:34;102033.25;;;9.33
60003;BMP280;46322;52.018;8.702;2023-02-08T21:49:34;102025.03;;;10.47
60003;BMP280;46322;52.018;8.702;2023-02-08T21:54:35;102021.25;;;10.73
60003;BMP280;46322;52.018;8.702;2023-02-08T21:59:35;102023.28;;;10.12
60003;BMP280;46322;52.018;8.702;2023-02-08T22:04:35;102009.72;;;10.34
60003;BMP280;46322;52.018;8.702;2023-02-08T22:09:35;102007.63;;;10.25
60003;BMP280;46322;52.018;8.702;2023-02-08T22:14:36;102010.53;;;10.29
60003;BMP280;46322;52.018;8.702;2023-02-08T22:19:39;102001.56;;;10.20
60003;BMP280;46322;52.018;8.702;2023-02-08T22:24:40;102008.59;;;9.02
60003;BMP280;46322;52.018;8.702;2023-02-08T22:29:40;102001.09;;;8.37
60003;BMP280;46322;52.018;8.702;2023-02-08T22:34:40;101986.34;;;8.04
60003;BMP280;46322;52.018;8.702;2023-02-08T22:39:40;101988.53;;;8.59
60003;BMP280;46322;52.018;8.702;2023-02-08T22:44:41;101985.38;;;10.21
60003;BMP280;46322;52.018;8.702;2023-02-08T22:49:41;101984.41;;;6.69
60003;BMP280;46322;52.018;8.702;2023-02-08T22:54:41;101977.06;;;7.15
60003;BMP280;46322;52.018;8.702;2023-02-08T22:59:42;101980.31;;;9.23
60003;BMP280;46322;52.018;8.702;2023-02-08T23:04:42;101974.59;;;7.57
60003;BMP280;46322;52.018;8.702;2023-02-08T23:09:42;101967.47;;;7.90
60003;BMP280;46322;52.018;8.702;2023-02-08T23:14:42;101962.28;;;6.92
60003;BMP280;46322;52.018;8.702;2023-02-08T23:19:42;101958.53;;;7.37
60003;BMP280;46322;52.018;8.702;2023-02-08T23:24:42;101955.63;;;7.12
60003;BMP280;46322;52.018;8.702;2023-02-08T23:29:42;101964.53;;;8.24
60003;BMP280;46322;52.018;8.702;2023-02-08T23:34:43;101957.34;;;6.57
60003;BMP280;46322;52.018;8.702;2023-02-08T23:39:43;101952.78;;;7.40
60003;BMP280;46322;52.018;8.702;2023-02-08T23:44:43;101949.41;;;7.23
60003;BMP280;46322;52.018;8.702;2023-02-08T23:49:43;101932.50;;;6.53
60003;BMP280;46322;52.018;8.702;2023-02-08T23:54:43;101937.75;;;8.05
60003;BMP280;46322;52.018;8.702;2023-02-08T23:59:44;101924.03;;;7.44
